Terminal Aerodrome Forecast
Issued by NWS Los Angeles, CA

Home | Current Version | Previous Version | Text Only | Print | Product List | Glossary On
Versions: 1 2 3 4 5 6 7 8 9 10 11 12 13 14 15 16 17 18 19 20 21 22 23 24 25 26 27 28
000
FTUS46 KLOX 040500
TAFSMX
TAF
KSMX 040538Z 0406/0506 VRB05KT P6SM SKC
     FM040700 VRB05KT P6SM SCT012
     FM040800 VRB05KT P6SM BKN015
     FM041000 VRB03KT 6SM BR BKN007 OVC015
     FM041500 28005KT P6SM BKN020
     FM041900 30008KT P6SM SCT025
     FM042200 30013KT P6SM SKC
     FM050300 VRB05KT P6SM BKN015=

USA.gov is the U.S. government's official web portal to all federal, state and local government web resources and services.